maandag 16 juli 2018 | Home | Bestenlijsten | Bestenlijsten NL | Calculator eindtijd | Nieuws | Uitslagen | Videos | Wedstrijden | VZA Ranglijsten | Weer |
 
 
Recent nieuws meer nieuws
12-07: De gehoorzame volgzame hardloper
26-06: Veranderingen stratenloopcircuit
13-06: De levensduur van hardloopwedstrijden
08-06: De laatste Lepraloop!
28-05: Organiseren met de nieuwe privacywet
27-05: Erwin Adan en Anjolie Engels sterksten in Halve van Renesse
Wedstrijdagenda meer wedstrijden
di 17-07: 3e Zomerloop Retranchement
wo 18-07: 39e Stratenloop Westkapelle
di 24-07: 4e Zomerloop Groede
wo 25-07: 35e Bokaalloop Burgh-Haamstede
vr 27-07: 45e Noormannenloop Westkapelle
za 28-07: Memorial Rasschaert Ninove
di 31-07: 5e Zomerloop Nieuwvliet
wo 01-08: 81e Boulevardloop Vlissingen
vr 03-08: 34e Strandloop Ouddorp
vr 03-08: Track Meeting Utrecht
za 04-08: Meeting voor Mon Kessel-Lo
di 07-08: 6e Zomerloop Zuidzande
za 11-08: 15 van Wolphaartsdijk
vr 17-08: 4e Goes on Track
Recente uitslagen meer uitslagen
wo 11-07: 8e Sportvissersloop Yerseke
di 10-07: 2e Zomerloop Cadzand-Bad
za 07-07: Ronde van Sint Kruis
wo 04-07: 29e Stratenloop Zoutelande
di 03-07: 1e Zomerloop IJzendijke
vr 15-06: 10e Lepraloop Oostkapelle
vr 08-06: 10e Griffioenloop Middelburg (149)
za 02-06: Ladiesrun Goes
vr 01-06: 3e Gaperloop Gapinge (199)
 
Zoek tenminste met 3 tekens van wedstrijd, datum, plaats of atleet
1e Zomerloop
Retranchement, dinsdag 14 juli 2015 - Organisatie: Wielingen
10.8 km
PltsNaam
Tijdkm/umin/km
1  Sander PostTerneuzen38.36Mse   16.788  3:34
2  Mark VerhageZaamslag40.07Mse   16.153  3:43
3  Angelo van NevelMeulebeke40.51Mse   15.863  3:47
4  Robert VroonBreskens43.41M45   14.834  4:03
5  Francois van de BroeckeBreskens44.30Mse   14.562  4:07
6  Wouter GeorgesEvergem45.26Mse   14.263  4:12
7  David PietersOostburg45.36Mse   14.211  4:13
8  Wim WillemsBassevelde46.29Mse   13.940  4:18
9  Peter van WaesAardenburg47.05M50   13.763  4:22
10  Bart TimmermanLovendegem47.41Mse   13.590  4:25
11  Ruben de MeijerBiervliet48.17Mse   13.421  4:28
12  Gino le SesselleBentille49.02Mse   13.215  4:32
13  Patrick de SutterOostburg49.13Mse   13.166  4:33
14  Myrthe FaroBreskens49.46Vse   13.021  4:36
15  Ray CornipsZuidzande50.16Mse   12.891  4:39
16  Simon de FeyterSchoondijke50.16M50   12.891  4:39
17  Leon van BavinchovenTerneuzen50.50Mse   12.748  4:42
18  Walter MurreZaamslag50.57Mse   12.718  4:43
19  Ebe BlaauwTerneuzen51.10M60   12.664  4:44
20  Patrick DeclerckWoumen51.30Mse   12.583  4:46
21  Jacques ZamanTerneuzen51.54M50   12.486  4:48
22  Aschwin RoegiersTerneuzen52.09Mse   12.426  4:50
23  Siemen GoosensenSchoondijke52.35Mse   12.323  4:52
24  Emma Joy van DorpKoog aan de Zaan53.11Vse   12.184  4:55
25  Astrid VerhageZuiddorpe53.14Vse   12.173  4:56
26  Patrick SteenbekeEeklo54.33Mse   11.879  5:03
27  Marjan VerhageAxel55.17Vse   11.721  5:07
28  Dicky KeukeleireBrugge55.28Mse   11.683  5:08
29  Ronny SavelsWestkapelle (B)56.15Mse   11.520  5:13
30  Ivan VerbekeSint-Laureins56.31Mse   11.466  5:14
31  Daniel VandammeBrugge57.21Mse   11.299  5:19
32  Jurgen van HerwegheHeusden58.31Mse   11.074  5:25
33  Inge van IwaardenAardenburg59.01Vse   10.980  5:28
34  Anniek de RijckSint Jansteen59.41Vse   10.857  5:32
35  Joop de RyckSint Jansteen59.41Mse   10.857  5:32
36  Tim van IwaardenAardenburg1.01.47Mse   10.488  5:43
37  Sara van DaleOostburg1.03.51Vse   10.149  5:55
38  Astrid FinkKreuzweingarten1.06.43Vse   9.713  6:11
39  Marianne de BaedtsEeklo1.08.20Vse   9.483  6:20
40  Mieke VangaverEeklo1.08.20Mse   9.483  6:20
41  Jaap LuteijnBreskens1.11.20Mse   9.084  6:36
42  Josee GillissenHarlingen1.11.22Vse   9.080  6:36
Mannen: 32 (76.19%) => M45=1 - M50=3 - M60=1 - Mse=27
Vrouwen: 10 (23.81%) => Vse=10

Overzicht Top3, winnares en aantal deelnemers in eerdere jaren

JaarWinnaarTijd2eTijd 3eTijdWinnaresTijd#
2017Sebastien Mahia37:34Bert van de Velde37:50Mark Verhage39:28Monique Verschuure43:4154
2015Sander Post38:36Mark Verhage40:07Angelo van Nevel40:51Myrthe Faro49:4642

7.2 km
PltsNaam
Tijdkm/umin/km
1  Theo RaboutAardenburg26.28M40   16.322  3:41
2  Tommy de SmetTerneuzen27.10Mse   15.902  3:46
3  Matti BuysseStekene27.29Mse   15.719  3:49
4  Reggie BlondeelWatervliet27.38Mse   15.633  3:50
5  Bert VerbekeSente27.47Mse   15.549  3:52
6  Gert-Jan VaelTerneuzen28.49Mse   14.991  4:00
7  Stefan van EijkTerneuzen29.58Mse   14.416  4:10
8  Lorenzo d'HontHulst30.23Mse   14.218  4:13
9  Frans MangnusVogelwaarde30.38Mse   14.102  4:15
10  Jan ElfrinkGroede31.10Mse   13.861  4:20
11  Sven WisseGroede31.14Mse   13.831  4:20
12  Arno van den HemelGroede31.15Mse   13.824  4:20
13  Patrick van MorrelgemSluis31.30Mse   13.714  4:23
14  Wim RensinkAalten31.30Mse   13.714  4:23
15  Ludo NulensTongeren31.45Mse   13.606  4:25
16  Johan de FeijterOostburg31.52Mse   13.556  4:26
17  Marcel RooseBreskens31.52Mse   13.556  4:26
18  Jaap van der VeenTerneuzen31.57M45   13.521  4:26
19  Ronny VersluysZuidzande32.09Mse   13.437  4:28
20  Lorenzo FlipseDelft33.04Mse   13.065  4:36
21  Wim FlipseTerneuzen33.05M45   13.058  4:36
22  Jurgen de JongeOostburg33.28Mse   12.908  4:39
23  Evelien de VisserIJzendijke33.42Vse   12.819  4:41
24  Eric van NevelKoolkerke34.10Mse   12.644  4:45
25  Daniel FermontHulst34.16Mse   12.607  4:46
26  Niek RijnbergZuidzande34.26M45   12.546  4:47
27  Jan DamenOostburg34.28Mse   12.534  4:47
28  Sven SchiemanTerneuzen34.36Mse   12.486  4:48
29  Michel de RuijsscherBreskens34.54M45   12.378  4:51
30  Jan Piet FlikweertOostburg34.57M50   12.361  4:51
31  Terese van LareSluis35.21V65   12.221  4:55
32  Michel de MeijerCadzand36.05Mse   11.972  5:01
33  Rini FenijnNieuwvliet36.07Mse   11.961  5:01
34  Ronald van de VeireOostburg36.11M55   11.939  5:02
35  Ranco BogaardOostburg36.56Mse   11.697  5:08
36  Jacqueline MaasZuidzande37.02V45   11.665  5:09
37  Tonny van MulkenBreskens37.20M60   11.571  5:11
38  Mario SchockaertWetteren38.21Mse   11.265  5:20
39  Luc BelotVeltem-Belsem38.52Mse   11.115  5:24
40  Steven SlockAxel39.06Mse   11.049  5:26
41  Rik van SchuurOostburg39.09M65   11.034  5:26
42  Jorien BoidinOostburg39.13Vse   11.016  5:27
43  Stephanie van der VeenTerneuzen39.45Vse   10.868  5:31
44  Kristof VandaeleHouthulst39.46Mse   10.863  5:31
45  Bruno van CaelenbergKoekelberg39.55Mse   10.823  5:33
46  Jan de JongeDriewegen40.23Mse   10.697  5:37
47  Katrien VervarckeOostkerke40.26Vse   10.684  5:37
48  Johan de WispelaereSint Kruis40.56Mse   10.554  5:41
49  Bertrand HaeckBeernem41.21Mse   10.447  5:45
50  Ronny ScherbeijnCadzand43.11Mse   10.004  6:00
51  Paul SamynBrugge43.28Mse   9.939  6:02
52  Chantal de WildeIJzendijke44.09Vse   9.785  6:08
53  Martijn de WildeIJzendijke44.09Mse   9.785  6:08
54  Elke TeneijkenNettetal46.01Vse   9.388  6:23
55  Ineke van MorrelgemSluis46.51Vse   9.221  6:30
56  Erik LeutscherAlmere54.28Mse   7.931  7:34
57  Irma LeutscherAlmere54.28Vse   7.931  7:34
Mannen: 47 (82.46%) => M40=1 - M45=4 - M50=1 - M55=1 - M60=1 - M65=1 - Mse=38
Vrouwen: 10 (17.54%) => V45=1 - V65=1 - Vse=8

Overzicht Top3, winnares en aantal deelnemers in eerdere jaren

JaarWinnaarTijd2eTijd 3eTijdWinnaresTijd#
2017Wasnnes De Jaegher26:37Sem Schockaert27:22Bruno van Caelenberg28:41Aafje van Remoortere33:4663
2015Theo Rabout26:28Tommy de Smet27:10Matti Buysse27:29Evelien de Visser33:4257


Snelheid en tempo zijn berekend op de vermelde afstand. Bij een onjuiste afstand wijken deze uiteraard af!

Fouten melden via info@atletiekzeeland.nl Categorie fout? Mail dan geboortedatum. (geldt alleen voor Zeeuwen)

De server had 0.104 seconden nodig om deze lijst met 99 prestaties samen te stellen.

Terug naar boven

Vorige uitslagen
DatumWedstrijdPlaatsVereniging Hits
10-07-2018 2e ZomerloopCadzand-BadWielingen0
03-07-2018 1e ZomerloopIJzendijkeWielingen0
08-08-2017 5e ZomerloopNieuwvlietWielingen0
15-08-2017 6e ZomerloopZuidzandeWielingen0
18-07-2017 2e ZomerloopCadzandWielingen0
01-08-2017 4e ZomerloopGroedeWielingen0
25-07-2017 3e ZomerloopRetranchementWielingen0
28-07-2015 3e ZomerloopNieuwvlietWielingen506
11-08-2015 5e ZomerloopCadzandWielingen689
21-07-2015 2e ZomerloopGroedeWielingen654
04-08-2015 4e ZomerloopZuidzandeWielingen616
09-07-2013 ZomerloopRetranchementWielingen1281
10-07-2012 2e ZomerloopGroedeWielingen1245
24-07-2012 4e ZomerloopZuidzandeWielingen1244
17-07-2012 3e ZomerloopNieuwvlietWielingen1365
03-07-2012 ZomerloopRetranchementWielingen1398
26-07-2011 4e ZomerloopZuidzandeWielingen1823
05-07-2011 ZomerloopRetranchementWielingen1258
07-07-2009 ZomerloopRetranchementWielingen1237
21-07-2009 3e ZomerloopNieuwvlietWielingen1741
04-08-2009 5e ZomerloopCadzand-BadWielingen1858
14-07-2009 2e ZomerloopGroedeWielingen1474
28-07-2009 4e ZomerloopZuidzandeWielingen1737
15-07-2008 2e ZomerloopGroedeWielingen1412
29-07-2008 4e ZomerloopZuidzandeWielingen1440
08-07-2008 ZomerloopRetranchementWielingen1497
22-07-2008 3e ZomerloopNieuwvlietWielingen1508

 
Laatste reactie:
Jan Roose: De Levensduur Van Hardloopweds..
Recente Zeeuwse prestaties meer prestaties
14-07: Guldensporenmeeting Kortrijk (2)
1500 m Chris de Smit (PR 4.29.70)4.38.26  M35
800 m Wouter Verstraate (PR 1.58.48)1.58.99  Mse
13-07: Track Meeting Utrecht (2)
800 m Viktor Beelen (PR 2.05.32)2.07.80  Mse
100 m Mariska Bun (PR 12.11)12.42  Vse
11-07: Gouden 3000m Ertvelde (2)
800 m Wouter Verstraate (PR 1.58.48)2.00.96  Mse
400 m Jacques Zaman (PR 56.4)60.28  M55
07-07: Arena Games Hilversum (3)
07-07: Chaamloop (2)
05-07: Track Meeting Rotterdam (3)
01-07: Internationaal Antwerps Atletiekgala Merksem (5)
30-06: Brussels Grand Prix (1)
24-06: 35e Halve Marathon Roosendaal (104)
24-06: NK baan Senioren Utrecht (10)
24-06: Grote Prijs Lokeren (4)
23-06: Marathon Rond Sneek en Meer (6)
21-06: 19e Molenloop Stellendam (4)
20-06: Avondbaanwedstrijd Vlissingen (25)
17-06: Dwars door Geel (1)
16-06: 31e Bavoloop Rijsbergen (9)
16-06: NK A/B-junioren Emmeloord (7)
14-06: Track Meeting Dordrecht (2)
13-06: Hardloopgala Gilze (9)
12-06: Avondbaanwedstrijd Terneuzen (24)
09-06: 36e Nationale Lenteloop Papendrecht (2)
09-06: Baanwedstrijd Zierikzee (14)
09-06: 47e Gouden Spike Leiden (1)
08-06: Nijmegen Global Athletics (3)
06-06: Pagnevaartloop Oudenbosch (4)
03-06: 8e Brabantse Wal Marathon Bergen op Zoom (43)
03-06: NK Masters Gouda (1)
02-06: Putbosmeeting Oordegem (10)
02-06: Van Goghloop Zundert (3)
01-06: Track Meeting Utrecht (5)
27-05: 28e Leiden Marathon (25)
27-05: Halve Marathon Hoogvliet (1)
26-05: 9e IFAM Outdoor Oordegem (5)
21-05: Memorial Vertommen-Cuddy Duffel (9)
21-05: Pinksterwedstrijd Hulst (13)
19-05: 7e Bokkenloop Sinaai (5)
19-05: Ter Specke Bokaal Lisse (3)
18-05: Track Meeting Wageningen (2)
Atletiek Zeeland © 2018